sensor_id;sensor_type;location;lat;lon;timestamp;P1;durP1;ratioP1;P2;durP2;ratioP2
72611;SDS011;60655;52.182;4.474;2023-10-08T00:00:18;31.13;;;5.13;;
72611;SDS011;60655;52.182;4.474;2023-10-08T00:02:38;22.85;;;4.97;;
72611;SDS011;60655;52.182;4.474;2023-10-08T00:04:40;24.42;;;4.60;;
72611;SDS011;60655;52.182;4.474;2023-10-08T00:06:41;19.30;;;4.43;;
72611;SDS011;60655;52.182;4.474;2023-10-08T00:08:42;20.83;;;4.97;;
72611;SDS011;60655;52.182;4.474;2023-10-08T00:10:43;19.08;;;4.72;;
72611;SDS011;60655;52.182;4.474;2023-10-08T00:12:44;20.85;;;5.07;;
72611;SDS011;60655;52.182;4.474;2023-10-08T00:14:48;21.45;;;4.60;;
72611;SDS011;60655;52.182;4.474;2023-10-08T00:16:54;17.80;;;4.85;;
72611;SDS011;60655;52.182;4.474;2023-10-08T00:18:54;23.33;;;4.63;;
72611;SDS011;60655;52.182;4.474;2023-10-08T00:21:00;22.20;;;4.63;;
72611;SDS011;60655;52.182;4.474;2023-10-08T00:23:10;18.35;;;4.85;;
72611;SDS011;60655;52.182;4.474;2023-10-08T00:25:11;18.27;;;4.68;;
72611;SDS011;60655;52.182;4.474;2023-10-08T00:27:12;21.73;;;4.70;;
72611;SDS011;60655;52.182;4.474;2023-10-08T00:29:18;17.65;;;5.07;;
72611;SDS011;60655;52.182;4.474;2023-10-08T00:31:22;17.85;;;4.30;;
72611;SDS011;60655;52.182;4.474;2023-10-08T00:33:31;20.13;;;4.35;;
72611;SDS011;60655;52.182;4.474;2023-10-08T00:35:36;18.48;;;4.70;;
72611;SDS011;60655;52.182;4.474;2023-10-08T00:37:38;22.35;;;4.80;;
72611;SDS011;60655;52.182;4.474;2023-10-08T00:39:38;19.55;;;5.10;;
72611;SDS011;60655;52.182;4.474;2023-10-08T00:41:41;21.17;;;4.63;;
72611;SDS011;60655;52.182;4.474;2023-10-08T00:43:43;20.20;;;4.72;;
72611;SDS011;60655;52.182;4.474;2023-10-08T00:45:45;17.60;;;4.55;;
72611;SDS011;60655;52.182;4.474;2023-10-08T00:47:50;21.92;;;5.18;;
72611;SDS011;60655;52.182;4.474;2023-10-08T00:49:55;16.38;;;4.43;;
72611;SDS011;60655;52.182;4.474;2023-10-08T00:52:11;12.20;;;3.72;;
72611;SDS011;60655;52.182;4.474;2023-10-08T00:54:34;23.88;;;5.63;;
72611;SDS011;60655;52.182;4.474;2023-10-08T00:56:48;22.30;;;4.53;;
72611;SDS011;60655;52.182;4.474;2023-10-08T00:58:58;23.65;;;4.88;;
72611;SDS011;60655;52.182;4.474;2023-10-08T01:01:03;16.40;;;4.65;;
72611;SDS011;60655;52.182;4.474;2023-10-08T01:03:05;17.88;;;4.68;;
72611;SDS011;60655;52.182;4.474;2023-10-08T01:05:16;16.00;;;4.95;;
72611;SDS011;60655;52.182;4.474;2023-10-08T01:07:25;21.38;;;4.43;;
72611;SDS011;60655;52.182;4.474;2023-10-08T01:09:28;21.48;;;4.18;;
72611;SDS011;60655;52.182;4.474;2023-10-08T01:11:38;18.73;;;4.68;;
72611;SDS011;60655;52.182;4.474;2023-10-08T01:13:51;13.45;;;4.40;;
72611;SDS011;60655;52.182;4.474;2023-10-08T01:15:55;16.77;;;4.78;;
72611;SDS011;60655;52.182;4.474;2023-10-08T01:17:58;18.42;;;4.43;;
72611;SDS011;60655;52.182;4.474;2023-10-08T01:20:02;14.32;;;4.68;;
72611;SDS011;60655;52.182;4.474;2023-10-08T01:22:26;18.15;;;4.80;;
72611;SDS011;60655;52.182;4.474;2023-10-08T01:24:30;24.05;;;5.47;;
72611;SDS011;60655;52.182;4.474;2023-10-08T01:26:37;16.85;;;4.10;;
72611;SDS011;60655;52.182;4.474;2023-10-08T01:28:39;13.93;;;4.60;;
72611;SDS011;60655;52.182;4.474;2023-10-08T01:30:41;18.45;;;5.22;;
72611;SDS011;60655;52.182;4.474;2023-10-08T01:32:43;24.20;;;5.25;;
72611;SDS011;60655;52.182;4.474;2023-10-08T01:34:45;16.33;;;4.82;;
72611;SDS011;60655;52.182;4.474;2023-10-08T01:36:46;19.17;;;5.72;;
72611;SDS011;60655;52.182;4.474;2023-10-08T01:38:47;22.88;;;5.20;;
72611;SDS011;60655;52.182;4.474;2023-10-08T01:40:49;20.65;;;5.30;;
72611;SDS011;60655;52.182;4.474;2023-10-08T01:42:53;18.85;;;5.00;;
72611;SDS011;60655;52.182;4.474;2023-10-08T01:44:54;16.10;;;4.40;;
72611;SDS011;60655;52.182;4.474;2023-10-08T01:46:56;17.85;;;4.97;;
72611;SDS011;60655;52.182;4.474;2023-10-08T01:48:58;18.08;;;4.57;;
72611;SDS011;60655;52.182;4.474;2023-10-08T01:51:10;20.52;;;4.80;;
72611;SDS011;60655;52.182;4.474;2023-10-08T01:53:25;22.75;;;5.47;;
72611;SDS011;60655;52.182;4.474;2023-10-08T01:55:27;21.83;;;5.78;;
72611;SDS011;60655;52.182;4.474;2023-10-08T01:57:28;22.63;;;5.18;;
72611;SDS011;60655;52.182;4.474;2023-10-08T01:59:30;20.75;;;5.63;;
72611;SDS011;60655;52.182;4.474;2023-10-08T02:01:32;16.23;;;5.53;;
72611;SDS011;60655;52.182;4.474;2023-10-08T02:03:33;17.13;;;5.28;;
72611;SDS011;60655;52.182;4.474;2023-10-08T02:05:34;17.75;;;5.53;;
72611;SDS011;60655;52.182;4.474;2023-10-08T02:07:39;19.58;;;5.30;;
72611;SDS011;60655;52.182;4.474;2023-10-08T02:09:40;20.48;;;5.90;;
72611;SDS011;60655;52.182;4.474;2023-10-08T02:13:46;17.92;;;5.13;;
72611;SDS011;60655;52.182;4.474;2023-10-08T02:15:50;14.63;;;4.80;;
72611;SDS011;60655;52.182;4.474;2023-10-08T02:17:54;18.35;;;5.00;;
72611;SDS011;60655;52.182;4.474;2023-10-08T02:19:55;17.33;;;5.40;;
72611;SDS011;60655;52.182;4.474;2023-10-08T02:21:56;16.83;;;6.03;;
72611;SDS011;60655;52.182;4.474;2023-10-08T02:23:58;19.42;;;6.00;;
72611;SDS011;60655;52.182;4.474;2023-10-08T02:25:59;23.23;;;5.60;;
72611;SDS011;60655;52.182;4.474;2023-10-08T02:28:01;17.75;;;5.43;;
72611;SDS011;60655;52.182;4.474;2023-10-08T02:30:03;21.95;;;5.63;;
72611;SDS011;60655;52.182;4.474;2023-10-08T02:32:06;20.20;;;5.35;;
72611;SDS011;60655;52.182;4.474;2023-10-08T02:34:08;25.20;;;5.78;;
72611;SDS011;60655;52.182;4.474;2023-10-08T02:36:09;23.58;;;5.82;;
72611;SDS011;60655;52.182;4.474;2023-10-08T02:38:11;22.90;;;5.88;;
72611;SDS011;60655;52.182;4.474;2023-10-08T02:40:22;20.15;;;5.38;;
72611;SDS011;60655;52.182;4.474;2023-10-08T02:42:30;20.05;;;5.28;;
72611;SDS011;60655;52.182;4.474;2023-10-08T02:44:32;16.42;;;5.30;;
72611;SDS011;60655;52.182;4.474;2023-10-08T02:46:33;24.75;;;6.35;;
72611;SDS011;60655;52.182;4.474;2023-10-08T02:48:34;19.52;;;5.07;;
72611;SDS011;60655;52.182;4.474;2023-10-08T02:50:35;19.88;;;5.35;;
72611;SDS011;60655;52.182;4.474;2023-10-08T02:52:37;18.50;;;6.45;;
72611;SDS011;60655;52.182;4.474;2023-10-08T02:54:38;15.98;;;5.38;;
72611;SDS011;60655;52.182;4.474;2023-10-08T02:56:39;23.33;;;6.10;;
72611;SDS011;60655;52.182;4.474;2023-10-08T02:58:40;16.73;;;5.90;;
72611;SDS011;60655;52.182;4.474;2023-10-08T03:00:42;15.95;;;5.32;;
72611;SDS011;60655;52.182;4.474;2023-10-08T03:02:44;19.48;;;5.45;;
72611;SDS011;60655;52.182;4.474;2023-10-08T03:04:47;19.23;;;5.72;;
72611;SDS011;60655;52.182;4.474;2023-10-08T03:06:51;24.45;;;5.70;;
72611;SDS011;60655;52.182;4.474;2023-10-08T03:08:55;25.40;;;6.20;;
72611;SDS011;60655;52.182;4.474;2023-10-08T03:10:56;18.30;;;5.18;;
72611;SDS011;60655;52.182;4.474;2023-10-08T03:15:08;17.80;;;5.60;;
72611;SDS011;60655;52.182;4.474;2023-10-08T03:17:28;17.00;;;5.38;;
72611;SDS011;60655;52.182;4.474;2023-10-08T03:19:30;22.60;;;6.40;;
72611;SDS011;60655;52.182;4.474;2023-10-08T03:21:31;24.98;;;5.80;;
72611;SDS011;60655;52.182;4.474;2023-10-08T03:23:38;25.23;;;5.93;;
72611;SDS011;60655;52.182;4.474;2023-10-08T03:25:44;21.65;;;5.60;;
72611;SDS011;60655;52.182;4.474;2023-10-08T03:27:46;25.48;;;7.00;;
72611;SDS011;60655;52.182;4.474;2023-10-08T03:29:49;25.73;;;6.95;;
72611;SDS011;60655;52.182;4.474;2023-10-08T03:31:50;22.83;;;6.07;;
72611;SDS011;60655;52.182;4.474;2023-10-08T03:33:50;26.08;;;5.90;;
72611;SDS011;60655;52.182;4.474;2023-10-08T03:35:52;21.35;;;6.15;;
72611;SDS011;60655;52.182;4.474;2023-10-08T03:37:55;19.30;;;5.85;;
72611;SDS011;60655;52.182;4.474;2023-10-08T03:40:16;22.23;;;6.75;;
72611;SDS011;60655;52.182;4.474;2023-10-08T03:42:26;16.25;;;5.47;;
72611;SDS011;60655;52.182;4.474;2023-10-08T03:44:34;21.48;;;6.68;;
72611;SDS011;60655;52.182;4.474;2023-10-08T03:46:38;19.38;;;6.18;;
72611;SDS011;60655;52.182;4.474;2023-10-08T03:48:47;19.02;;;6.80;;
72611;SDS011;60655;52.182;4.474;2023-10-08T03:50:51;22.45;;;6.38;;
72611;SDS011;60655;52.182;4.474;2023-10-08T03:53:07;20.98;;;6.43;;
72611;SDS011;60655;52.182;4.474;2023-10-08T03:55:14;24.20;;;6.32;;
72611;SDS011;60655;52.182;4.474;2023-10-08T03:57:27;21.00;;;6.78;;
72611;SDS011;60655;52.182;4.474;2023-10-08T03:59:41;21.30;;;5.68;;
72611;SDS011;60655;52.182;4.474;2023-10-08T04:01:42;21.58;;;6.10;;
72611;SDS011;60655;52.182;4.474;2023-10-08T04:03:44;26.52;;;6.38;;
72611;SDS011;60655;52.182;4.474;2023-10-08T04:05:51;23.02;;;6.60;;
72611;SDS011;60655;52.182;4.474;2023-10-08T04:08:15;20.85;;;5.30;;
72611;SDS011;60655;52.182;4.474;2023-10-08T04:10:28;20.48;;;6.32;;
72611;SDS011;60655;52.182;4.474;2023-10-08T04:12:43;19.48;;;6.50;;
72611;SDS011;60655;52.182;4.474;2023-10-08T04:14:51;22.08;;;6.15;;
72611;SDS011;60655;52.182;4.474;2023-10-08T04:16:56;25.50;;;6.13;;
72611;SDS011;60655;52.182;4.474;2023-10-08T04:18:59;24.85;;;6.78;;
72611;SDS011;60655;52.182;4.474;2023-10-08T04:21:03;32.30;;;7.10;;
72611;SDS011;60655;52.182;4.474;2023-10-08T04:23:13;26.00;;;7.30;;
72611;SDS011;60655;52.182;4.474;2023-10-08T04:25:18;19.25;;;5.70;;
72611;SDS011;60655;52.182;4.474;2023-10-08T04:27:19;25.38;;;6.20;;
72611;SDS011;60655;52.182;4.474;2023-10-08T04:29:22;21.10;;;5.75;;
72611;SDS011;60655;52.182;4.474;2023-10-08T04:31:24;26.27;;;6.32;;
72611;SDS011;60655;52.182;4.474;2023-10-08T04:33:28;31.65;;;6.65;;
72611;SDS011;60655;52.182;4.474;2023-10-08T04:35:34;23.50;;;6.75;;
72611;SDS011;60655;52.182;4.474;2023-10-08T04:37:48;29.25;;;6.65;;
72611;SDS011;60655;52.182;4.474;2023-10-08T04:39:53;19.30;;;6.20;;
72611;SDS011;60655;52.182;4.474;2023-10-08T04:41:59;29.67;;;8.23;;
72611;SDS011;60655;52.182;4.474;2023-10-08T04:44:14;30.27;;;9.02;;
72611;SDS011;60655;52.182;4.474;2023-10-08T04:46:16;29.52;;;9.45;;
72611;SDS011;60655;52.182;4.474;2023-10-08T04:48:20;27.38;;;9.15;;
72611;SDS011;60655;52.182;4.474;2023-10-08T04:50:21;33.35;;;8.32;;
72611;SDS011;60655;52.182;4.474;2023-10-08T04:52:22;29.48;;;8.45;;
72611;SDS011;60655;52.182;4.474;2023-10-08T04:54:26;28.70;;;8.43;;
72611;SDS011;60655;52.182;4.474;2023-10-08T04:56:31;27.70;;;8.60;;
72611;SDS011;60655;52.182;4.474;2023-10-08T04:58:36;28.98;;;8.55;;
72611;SDS011;60655;52.182;4.474;2023-10-08T05:00:37;19.92;;;7.32;;
72611;SDS011;60655;52.182;4.474;2023-10-08T05:03:13;21.75;;;7.40;;
72611;SDS011;60655;52.182;4.474;2023-10-08T05:05:17;28.45;;;6.88;;
72611;SDS011;60655;52.182;4.474;2023-10-08T05:07:21;25.00;;;6.22;;
72611;SDS011;60655;52.182;4.474;2023-10-08T05:10:01;18.23;;;4.82;;
72611;SDS011;60655;52.182;4.474;2023-10-08T05:12:04;19.77;;;5.78;;
72611;SDS011;60655;52.182;4.474;2023-10-08T05:14:31;19.23;;;5.22;;
72611;SDS011;60655;52.182;4.474;2023-10-08T05:16:35;22.58;;;5.20;;
72611;SDS011;60655;52.182;4.474;2023-10-08T05:18:50;17.65;;;5.13;;
72611;SDS011;60655;52.182;4.474;2023-10-08T05:21:25;12.60;;;4.47;;
72611;SDS011;60655;52.182;4.474;2023-10-08T05:23:28;17.77;;;5.25;;
72611;SDS011;60655;52.182;4.474;2023-10-08T05:25:29;18.85;;;4.88;;
72611;SDS011;60655;52.182;4.474;2023-10-08T05:27:54;17.77;;;4.38;;
72611;SDS011;60655;52.182;4.474;2023-10-08T05:30:01;14.13;;;3.85;;
72611;SDS011;60655;52.182;4.474;2023-10-08T05:32:16;13.32;;;3.60;;
72611;SDS011;60655;52.182;4.474;2023-10-08T05:34:35;11.18;;;3.20;;
72611;SDS011;60655;52.182;4.474;2023-10-08T05:36:44;11.40;;;2.38;;
72611;SDS011;60655;52.182;4.474;2023-10-08T05:38:51;9.07;;;2.28;;
72611;SDS011;60655;52.182;4.474;2023-10-08T05:41:01;8.38;;;2.42;;
72611;SDS011;60655;52.182;4.474;2023-10-08T05:43:02;8.65;;;2.05;;
72611;SDS011;60655;52.182;4.474;2023-10-08T05:45:14;9.70;;;1.70;;
72611;SDS011;60655;52.182;4.474;2023-10-08T05:47:29;6.28;;;1.80;;
72611;SDS011;60655;52.182;4.474;2023-10-08T05:49:33;6.18;;;1.83;;
72611;SDS011;60655;52.182;4.474;2023-10-08T05:51:34;7.57;;;1.88;;
72611;SDS011;60655;52.182;4.474;2023-10-08T05:53:48;10.30;;;2.05;;
72611;SDS011;60655;52.182;4.474;2023-10-08T05:55:50;6.22;;;1.83;;
72611;SDS011;60655;52.182;4.474;2023-10-08T05:58:04;5.82;;;2.00;;
72611;SDS011;60655;52.182;4.474;2023-10-08T06:00:19;9.18;;;1.92;;
72611;SDS011;60655;52.182;4.474;2023-10-08T06:02:42;10.00;;;1.90;;
72611;SDS011;60655;52.182;4.474;2023-10-08T06:04:46;5.60;;;1.60;;
72611;SDS011;60655;52.182;4.474;2023-10-08T06:07:16;6.90;;;2.22;;
72611;SDS011;60655;52.182;4.474;2023-10-08T06:09:33;10.65;;;2.40;;
72611;SDS011;60655;52.182;4.474;2023-10-08T06:11:39;7.60;;;2.17;;
72611;SDS011;60655;52.182;4.474;2023-10-08T06:13:56;8.02;;;2.47;;
72611;SDS011;60655;52.182;4.474;2023-10-08T06:16:00;7.35;;;2.70;;
72611;SDS011;60655;52.182;4.474;2023-10-08T06:18:01;10.35;;;2.55;;
72611;SDS011;60655;52.182;4.474;2023-10-08T06:20:05;9.75;;;3.40;;
72611;SDS011;60655;52.182;4.474;2023-10-08T06:22:17;13.52;;;4.10;;
72611;SDS011;60655;52.182;4.474;2023-10-08T06:24:19;11.23;;;3.60;;
72611;SDS011;60655;52.182;4.474;2023-10-08T06:26:21;13.02;;;4.30;;
72611;SDS011;60655;52.182;4.474;2023-10-08T06:28:26;15.43;;;5.72;;
72611;SDS011;60655;52.182;4.474;2023-10-08T06:30:27;15.18;;;5.57;;
72611;SDS011;60655;52.182;4.474;2023-10-08T06:32:29;18.88;;;6.80;;
72611;SDS011;60655;52.182;4.474;2023-10-08T06:34:30;14.80;;;5.78;;
72611;SDS011;60655;52.182;4.474;2023-10-08T06:36:32;18.77;;;6.90;;
72611;SDS011;60655;52.182;4.474;2023-10-08T06:38:33;17.08;;;6.15;;
72611;SDS011;60655;52.182;4.474;2023-10-08T06:40:34;14.75;;;5.30;;
72611;SDS011;60655;52.182;4.474;2023-10-08T06:42:38;13.77;;;4.93;;
72611;SDS011;60655;52.182;4.474;2023-10-08T06:44:39;13.13;;;5.03;;
72611;SDS011;60655;52.182;4.474;2023-10-08T06:46:43;16.40;;;4.65;;
72611;SDS011;60655;52.182;4.474;2023-10-08T06:48:45;13.25;;;4.63;;
72611;SDS011;60655;52.182;4.474;2023-10-08T06:50:50;12.50;;;4.13;;
72611;SDS011;60655;52.182;4.474;2023-10-08T06:52:52;12.32;;;4.20;;
72611;SDS011;60655;52.182;4.474;2023-10-08T06:54:54;11.43;;;3.75;;
72611;SDS011;60655;52.182;4.474;2023-10-08T06:56:56;12.32;;;3.55;;
72611;SDS011;60655;52.182;4.474;2023-10-08T06:58:57;11.30;;;3.25;;
72611;SDS011;60655;52.182;4.474;2023-10-08T07:01:00;9.38;;;3.20;;
72611;SDS011;60655;52.182;4.474;2023-10-08T07:03:13;12.27;;;3.35;;
72611;SDS011;60655;52.182;4.474;2023-10-08T07:05:15;10.82;;;3.85;;
72611;SDS011;60655;52.182;4.474;2023-10-08T07:07:16;9.75;;;2.88;;
72611;SDS011;60655;52.182;4.474;2023-10-08T07:09:19;7.93;;;2.92;;
72611;SDS011;60655;52.182;4.474;2023-10-08T07:11:23;13.80;;;3.42;;
72611;SDS011;60655;52.182;4.474;2023-10-08T07:13:24;9.50;;;2.70;;
72611;SDS011;60655;52.182;4.474;2023-10-08T07:15:25;9.80;;;2.58;;
72611;SDS011;60655;52.182;4.474;2023-10-08T07:17:26;10.93;;;2.42;;
72611;SDS011;60655;52.182;4.474;2023-10-08T07:19:37;14.10;;;3.13;;
72611;SDS011;60655;52.182;4.474;2023-10-08T07:21:38;6.40;;;2.00;;
72611;SDS011;60655;52.182;4.474;2023-10-08T07:23:45;10.55;;;2.38;;
72611;SDS011;60655;52.182;4.474;2023-10-08T07:26:01;7.95;;;2.50;;
72611;SDS011;60655;52.182;4.474;2023-10-08T07:28:12;13.02;;;2.85;;
72611;SDS011;60655;52.182;4.474;2023-10-08T07:30:13;11.38;;;3.15;;
72611;SDS011;60655;52.182;4.474;2023-10-08T07:32:27;9.00;;;2.33;;
72611;SDS011;60655;52.182;4.474;2023-10-08T07:34:27;12.52;;;3.10;;
72611;SDS011;60655;52.182;4.474;2023-10-08T07:36:32;15.73;;;3.35;;
72611;SDS011;60655;52.182;4.474;2023-10-08T07:38:33;14.30;;;3.50;;
72611;SDS011;60655;52.182;4.474;2023-10-08T07:40:35;13.13;;;2.88;;
72611;SDS011;60655;52.182;4.474;2023-10-08T07:42:37;12.73;;;2.80;;
72611;SDS011;60655;52.182;4.474;2023-10-08T07:44:38;11.75;;;2.60;;
72611;SDS011;60655;52.182;4.474;2023-10-08T07:46:39;11.35;;;3.00;;
72611;SDS011;60655;52.182;4.474;2023-10-08T07:48:40;9.18;;;2.40;;
72611;SDS011;60655;52.182;4.474;2023-10-08T07:50:44;11.77;;;2.70;;
72611;SDS011;60655;52.182;4.474;2023-10-08T07:52:46;11.90;;;2.60;;
72611;SDS011;60655;52.182;4.474;2023-10-08T07:54:47;10.93;;;2.05;;
72611;SDS011;60655;52.182;4.474;2023-10-08T07:56:49;7.38;;;2.65;;
72611;SDS011;60655;52.182;4.474;2023-10-08T07:58:52;11.52;;;2.90;;
72611;SDS011;60655;52.182;4.474;2023-10-08T08:00:56;10.88;;;2.63;;
72611;SDS011;60655;52.182;4.474;2023-10-08T08:02:57;11.57;;;2.65;;
72611;SDS011;60655;52.182;4.474;2023-10-08T08:04:58;10.75;;;2.67;;
72611;SDS011;60655;52.182;4.474;2023-10-08T08:06:59;9.68;;;2.50;;
72611;SDS011;60655;52.182;4.474;2023-10-08T08:09:02;16.13;;;2.53;;
72611;SDS011;60655;52.182;4.474;2023-10-08T08:11:08;13.68;;;2.80;;
72611;SDS011;60655;52.182;4.474;2023-10-08T08:13:12;11.10;;;2.60;;
72611;SDS011;60655;52.182;4.474;2023-10-08T08:15:20;8.93;;;2.45;;
72611;SDS011;60655;52.182;4.474;2023-10-08T08:17:24;13.88;;;2.60;;
72611;SDS011;60655;52.182;4.474;2023-10-08T08:19:25;8.52;;;2.40;;
72611;SDS011;60655;52.182;4.474;2023-10-08T08:21:26;13.50;;;3.20;;
72611;SDS011;60655;52.182;4.474;2023-10-08T08:23:30;9.15;;;2.80;;
72611;SDS011;60655;52.182;4.474;2023-10-08T08:25:36;8.35;;;2.42;;
72611;SDS011;60655;52.182;4.474;2023-10-08T08:27:55;10.98;;;2.63;;
72611;SDS011;60655;52.182;4.474;2023-10-08T08:29:57;5.93;;;1.95;;
72611;SDS011;60655;52.182;4.474;2023-10-08T08:32:10;6.93;;;1.70;;
72611;SDS011;60655;52.182;4.474;2023-10-08T08:34:16;7.55;;;1.92;;
72611;SDS011;60655;52.182;4.474;2023-10-08T08:36:20;6.05;;;1.92;;
72611;SDS011;60655;52.182;4.474;2023-10-08T08:38:22;7.57;;;1.63;;
72611;SDS011;60655;52.182;4.474;2023-10-08T08:40:24;5.63;;;1.63;;
72611;SDS011;60655;52.182;4.474;2023-10-08T08:42:25;7.28;;;1.58;;
72611;SDS011;60655;52.182;4.474;2023-10-08T08:44:28;8.23;;;1.63;;
72611;SDS011;60655;52.182;4.474;2023-10-08T08:46:33;6.63;;;1.73;;
72611;SDS011;60655;52.182;4.474;2023-10-08T08:48:36;6.03;;;1.50;;
72611;SDS011;60655;52.182;4.474;2023-10-08T08:50:39;4.78;;;1.20;;
72611;SDS011;60655;52.182;4.474;2023-10-08T08:52:40;8.32;;;1.58;;
72611;SDS011;60655;52.182;4.474;2023-10-08T08:54:41;6.53;;;1.48;;
72611;SDS011;60655;52.182;4.474;2023-10-08T08:56:45;4.03;;;1.13;;
72611;SDS011;60655;52.182;4.474;2023-10-08T08:58:46;4.18;;;1.15;;
72611;SDS011;60655;52.182;4.474;2023-10-08T09:00:48;5.55;;;1.25;;
72611;SDS011;60655;52.182;4.474;2023-10-08T09:02:53;3.50;;;1.15;;
72611;SDS011;60655;52.182;4.474;2023-10-08T09:04:56;6.82;;;1.60;;
72611;SDS011;60655;52.182;4.474;2023-10-08T09:06:58;3.88;;;1.10;;
72611;SDS011;60655;52.182;4.474;2023-10-08T09:09:03;4.00;;;1.15;;
72611;SDS011;60655;52.182;4.474;2023-10-08T09:11:22;2.17;;;0.85;;
72611;SDS011;60655;52.182;4.474;2023-10-08T09:13:27;4.43;;;1.05;;
72611;SDS011;60655;52.182;4.474;2023-10-08T09:15:28;2.80;;;0.80;;
72611;SDS011;60655;52.182;4.474;2023-10-08T09:17:29;2.85;;;0.80;;
72611;SDS011;60655;52.182;4.474;2023-10-08T09:19:39;2.40;;;0.80;;
72611;SDS011;60655;52.182;4.474;2023-10-08T09:21:40;3.03;;;0.88;;
72611;SDS011;60655;52.182;4.474;2023-10-08T09:23:45;7.15;;;1.00;;
72611;SDS011;60655;52.182;4.474;2023-10-08T09:25:51;2.95;;;0.85;;
72611;SDS011;60655;52.182;4.474;2023-10-08T09:27:59;3.25;;;0.90;;
72611;SDS011;60655;52.182;4.474;2023-10-08T09:30:03;3.67;;;0.77;;
72611;SDS011;60655;52.182;4.474;2023-10-08T09:32:10;5.55;;;1.08;;
72611;SDS011;60655;52.182;4.474;2023-10-08T09:34:12;5.70;;;1.20;;
72611;SDS011;60655;52.182;4.474;2023-10-08T09:36:17;3.25;;;1.08;;
72611;SDS011;60655;52.182;4.474;2023-10-08T09:38:19;2.92;;;0.90;;
72611;SDS011;60655;52.182;4.474;2023-10-08T09:40:24;3.67;;;1.10;;
72611;SDS011;60655;52.182;4.474;2023-10-08T09:42:26;5.47;;;1.20;;
72611;SDS011;60655;52.182;4.474;2023-10-08T09:44:28;5.95;;;1.20;;
72611;SDS011;60655;52.182;4.474;2023-10-08T09:46:30;6.15;;;1.40;;
72611;SDS011;60655;52.182;4.474;2023-10-08T09:48:37;4.68;;;1.20;;
72611;SDS011;60655;52.182;4.474;2023-10-08T09:50:44;5.82;;;1.63;;
72611;SDS011;60655;52.182;4.474;2023-10-08T09:55:08;5.55;;;1.35;;
72611;SDS011;60655;52.182;4.474;2023-10-08T09:57:12;5.13;;;1.30;;
72611;SDS011;60655;52.182;4.474;2023-10-08T09:59:13;3.75;;;1.30;;
72611;SDS011;60655;52.182;4.474;2023-10-08T10:01:17;6.63;;;1.60;;
72611;SDS011;60655;52.182;4.474;2023-10-08T10:03:20;3.00;;;1.20;;
72611;SDS011;60655;52.182;4.474;2023-10-08T10:05:22;3.42;;;1.30;;
72611;SDS011;60655;52.182;4.474;2023-10-08T10:07:25;4.88;;;1.40;;
72611;SDS011;60655;52.182;4.474;2023-10-08T10:09:26;7.28;;;1.33;;
72611;SDS011;60655;52.182;4.474;2023-10-08T10:11:30;5.68;;;1.67;;
72611;SDS011;60655;52.182;4.474;2023-10-08T10:13:44;5.25;;;1.33;;
72611;SDS011;60655;52.182;4.474;2023-10-08T10:15:49;5.43;;;1.70;;
72611;SDS011;60655;52.182;4.474;2023-10-08T10:17:52;4.20;;;1.40;;
72611;SDS011;60655;52.182;4.474;2023-10-08T10:19:53;3.58;;;1.38;;
72611;SDS011;60655;52.182;4.474;2023-10-08T10:22:00;4.55;;;1.42;;
72611;SDS011;60655;52.182;4.474;2023-10-08T10:24:03;4.88;;;1.70;;
72611;SDS011;60655;52.182;4.474;2023-10-08T10:28:35;4.38;;;1.92;;
72611;SDS011;60655;52.182;4.474;2023-10-08T10:30:39;6.75;;;2.20;;
72611;SDS011;60655;52.182;4.474;2023-10-08T10:32:40;5.85;;;1.83;;
72611;SDS011;60655;52.182;4.474;2023-10-08T10:34:46;6.35;;;1.80;;
72611;SDS011;60655;52.182;4.474;2023-10-08T10:36:49;7.55;;;2.13;;
72611;SDS011;60655;52.182;4.474;2023-10-08T10:38:57;5.88;;;2.03;;
72611;SDS011;60655;52.182;4.474;2023-10-08T10:40:58;5.47;;;1.85;;
72611;SDS011;60655;52.182;4.474;2023-10-08T10:43:00;7.25;;;2.03;;
72611;SDS011;60655;52.182;4.474;2023-10-08T10:45:02;6.00;;;2.00;;
72611;SDS011;60655;52.182;4.474;2023-10-08T10:47:09;9.02;;;2.10;;
72611;SDS011;60655;52.182;4.474;2023-10-08T10:49:16;6.63;;;1.88;;
72611;SDS011;60655;52.182;4.474;2023-10-08T10:51:19;8.85;;;2.10;;
72611;SDS011;60655;52.182;4.474;2023-10-08T10:53:20;6.80;;;2.00;;
72611;SDS011;60655;52.182;4.474;2023-10-08T10:55:21;8.23;;;2.25;;
72611;SDS011;60655;52.182;4.474;2023-10-08T10:57:26;6.93;;;2.17;;
72611;SDS011;60655;52.182;4.474;2023-10-08T10:59:35;6.95;;;2.30;;
72611;SDS011;60655;52.182;4.474;2023-10-08T11:01:39;8.13;;;2.75;;
72611;SDS011;60655;52.182;4.474;2023-10-08T11:03:48;8.95;;;2.35;;
72611;SDS011;60655;52.182;4.474;2023-10-08T11:05:55;8.75;;;2.50;;
72611;SDS011;60655;52.182;4.474;2023-10-08T11:08:00;10.57;;;3.00;;
72611;SDS011;60655;52.182;4.474;2023-10-08T11:10:05;8.15;;;2.38;;
72611;SDS011;60655;52.182;4.474;2023-10-08T11:12:12;6.90;;;2.30;;
72611;SDS011;60655;52.182;4.474;2023-10-08T11:14:19;8.95;;;2.70;;
72611;SDS011;60655;52.182;4.474;2023-10-08T11:16:22;9.85;;;2.70;;
72611;SDS011;60655;52.182;4.474;2023-10-08T11:18:24;7.93;;;2.22;;
72611;SDS011;60655;52.182;4.474;2023-10-08T11:20:28;8.57;;;2.03;;
72611;SDS011;60655;52.182;4.474;2023-10-08T11:22:42;10.05;;;2.75;;
72611;SDS011;60655;52.182;4.474;2023-10-08T11:24:46;9.82;;;3.03;;
72611;SDS011;60655;52.182;4.474;2023-10-08T11:26:54;10.43;;;3.00;;
72611;SDS011;60655;52.182;4.474;2023-10-08T11:29:06;11.25;;;3.30;;
72611;SDS011;60655;52.182;4.474;2023-10-08T11:31:15;9.18;;;3.00;;
72611;SDS011;60655;52.182;4.474;2023-10-08T11:33:20;12.00;;;3.30;;
72611;SDS011;60655;52.182;4.474;2023-10-08T11:35:21;11.65;;;3.70;;
72611;SDS011;60655;52.182;4.474;2023-10-08T11:37:29;10.43;;;2.45;;
72611;SDS011;60655;52.182;4.474;2023-10-08T11:39:40;13.43;;;3.65;;
72611;SDS011;60655;52.182;4.474;2023-10-08T11:41:54;10.55;;;3.30;;
72611;SDS011;60655;52.182;4.474;2023-10-08T11:43:56;10.55;;;3.05;;
72611;SDS011;60655;52.182;4.474;2023-10-08T11:45:58;9.93;;;2.90;;
72611;SDS011;60655;52.182;4.474;2023-10-08T11:47:59;8.45;;;2.95;;
72611;SDS011;60655;52.182;4.474;2023-10-08T11:50:12;9.20;;;3.15;;
72611;SDS011;60655;52.182;4.474;2023-10-08T11:52:17;8.98;;;3.05;;
72611;SDS011;60655;52.182;4.474;2023-10-08T11:54:22;11.70;;;3.30;;
72611;SDS011;60655;52.182;4.474;2023-10-08T11:56:23;7.88;;;3.15;;
72611;SDS011;60655;52.182;4.474;2023-10-08T11:58:24;10.07;;;3.20;;
72611;SDS011;60655;52.182;4.474;2023-10-08T12:00:38;9.73;;;2.88;;
72611;SDS011;60655;52.182;4.474;2023-10-08T12:02:46;11.25;;;3.28;;
72611;SDS011;60655;52.182;4.474;2023-10-08T12:04:47;9.10;;;3.20;;
72611;SDS011;60655;52.182;4.474;2023-10-08T12:06:48;12.35;;;3.05;;
72611;SDS011;60655;52.182;4.474;2023-10-08T12:08:52;8.80;;;3.50;;
72611;SDS011;60655;52.182;4.474;2023-10-08T12:10:54;10.75;;;2.97;;
72611;SDS011;60655;52.182;4.474;2023-10-08T12:12:55;9.32;;;3.20;;
72611;SDS011;60655;52.182;4.474;2023-10-08T12:14:56;10.73;;;3.33;;
72611;SDS011;60655;52.182;4.474;2023-10-08T12:16:56;8.80;;;3.13;;
72611;SDS011;60655;52.182;4.474;2023-10-08T12:19:01;9.27;;;3.65;;
72611;SDS011;60655;52.182;4.474;2023-10-08T12:21:16;14.43;;;4.03;;
72611;SDS011;60655;52.182;4.474;2023-10-08T12:23:18;14.48;;;3.80;;
72611;SDS011;60655;52.182;4.474;2023-10-08T12:25:29;14.30;;;4.00;;
72611;SDS011;60655;52.182;4.474;2023-10-08T12:27:32;8.50;;;3.35;;
72611;SDS011;60655;52.182;4.474;2023-10-08T12:29:34;13.27;;;3.90;;
72611;SDS011;60655;52.182;4.474;2023-10-08T12:31:35;8.20;;;3.10;;
72611;SDS011;60655;52.182;4.474;2023-10-08T12:33:36;12.25;;;4.03;;
72611;SDS011;60655;52.182;4.474;2023-10-08T12:35:41;16.13;;;4.28;;